sensor_id;sensor_type;location;lat;lon;timestamp;P1;durP1;ratioP1;P2;durP2;ratioP2
17310;SDS011;8773;43.300;0.394;2022-11-20T00:01:16;16.33;;;14.87;;
17310;SDS011;8773;43.300;0.394;2022-11-20T00:03:50;16.73;;;15.23;;
17310;SDS011;8773;43.300;0.394;2022-11-20T00:06:19;14.53;;;13.23;;
17310;SDS011;8773;43.300;0.394;2022-11-20T00:08:48;14.63;;;13.27;;
17310;SDS011;8773;43.300;0.394;2022-11-20T00:11:22;13.23;;;12.03;;
17310;SDS011;8773;43.300;0.394;2022-11-20T00:13:52;13.40;;;12.30;;
17310;SDS011;8773;43.300;0.394;2022-11-20T00:16:22;15.47;;;13.87;;
17310;SDS011;8773;43.300;0.394;2022-11-20T00:18:55;15.40;;;14.00;;
17310;SDS011;8773;43.300;0.394;2022-11-20T00:21:24;13.47;;;12.27;;
17310;SDS011;8773;43.300;0.394;2022-11-20T00:23:55;13.90;;;12.50;;
17310;SDS011;8773;43.300;0.394;2022-11-20T00:26:24;12.87;;;11.67;;
17310;SDS011;8773;43.300;0.394;2022-11-20T00:28:54;16.37;;;14.83;;
17310;SDS011;8773;43.300;0.394;2022-11-20T00:31:26;15.17;;;13.77;;
17310;SDS011;8773;43.300;0.394;2022-11-20T00:34:00;11.63;;;10.63;;
17310;SDS011;8773;43.300;0.394;2022-11-20T00:36:32;12.27;;;11.27;;
17310;SDS011;8773;43.300;0.394;2022-11-20T00:39:04;13.33;;;11.97;;
17310;SDS011;8773;43.300;0.394;2022-11-20T00:41:32;12.17;;;11.07;;
17310;SDS011;8773;43.300;0.394;2022-11-20T00:44:00;13.17;;;12.07;;
17310;SDS011;8773;43.300;0.394;2022-11-20T00:46:28;12.17;;;11.17;;
17310;SDS011;8773;43.300;0.394;2022-11-20T00:49:01;14.07;;;12.87;;
17310;SDS011;8773;43.300;0.394;2022-11-20T00:51:29;15.67;;;14.07;;
17310;SDS011;8773;43.300;0.394;2022-11-20T00:54:06;15.30;;;13.90;;
17310;SDS011;8773;43.300;0.394;2022-11-20T00:56:34;15.37;;;13.97;;
17310;SDS011;8773;43.300;0.394;2022-11-20T00:59:05;14.50;;;13.20;;
17310;SDS011;8773;43.300;0.394;2022-11-20T01:01:35;15.23;;;13.93;;
17310;SDS011;8773;43.300;0.394;2022-11-20T01:04:08;15.30;;;13.33;;
17310;SDS011;8773;43.300;0.394;2022-11-20T01:06:39;16.10;;;14.60;;
17310;SDS011;8773;43.300;0.394;2022-11-20T01:09:10;14.53;;;13.07;;
17310;SDS011;8773;43.300;0.394;2022-11-20T01:11:40;12.80;;;11.73;;
17310;SDS011;8773;43.300;0.394;2022-11-20T01:14:14;13.23;;;11.97;;
17310;SDS011;8773;43.300;0.394;2022-11-20T01:16:44;12.60;;;11.47;;
17310;SDS011;8773;43.300;0.394;2022-11-20T01:19:16;12.73;;;11.60;;
17310;SDS011;8773;43.300;0.394;2022-11-20T01:21:47;11.60;;;10.53;;
17310;SDS011;8773;43.300;0.394;2022-11-20T01:24:18;12.80;;;11.60;;
17310;SDS011;8773;43.300;0.394;2022-11-20T01:26:47;12.80;;;11.60;;
17310;SDS011;8773;43.300;0.394;2022-11-20T01:29:18;11.70;;;10.70;;
17310;SDS011;8773;43.300;0.394;2022-11-20T01:31:48;11.80;;;10.70;;
17310;SDS011;8773;43.300;0.394;2022-11-20T01:34:18;12.03;;;11.03;;
17310;SDS011;8773;43.300;0.394;2022-11-20T01:36:48;12.50;;;11.23;;
17310;SDS011;8773;43.300;0.394;2022-11-20T01:39:17;12.27;;;11.07;;
17310;SDS011;8773;43.300;0.394;2022-11-20T01:41:47;12.60;;;11.50;;
17310;SDS011;8773;43.300;0.394;2022-11-20T01:44:47;12.00;;;10.97;;
17310;SDS011;8773;43.300;0.394;2022-11-20T01:47:20;14.10;;;12.80;;
17310;SDS011;8773;43.300;0.394;2022-11-20T01:49:55;12.53;;;11.53;;
17310;SDS011;8773;43.300;0.394;2022-11-20T01:52:27;11.90;;;10.70;;
17310;SDS011;8773;43.300;0.394;2022-11-20T01:55:01;11.13;;;10.23;;
17310;SDS011;8773;43.300;0.394;2022-11-20T01:57:33;12.00;;;11.00;;
17310;SDS011;8773;43.300;0.394;2022-11-20T02:00:05;11.87;;;10.87;;
17310;SDS011;8773;43.300;0.394;2022-11-20T02:02:35;13.57;;;12.37;;
17310;SDS011;8773;43.300;0.394;2022-11-20T02:05:11;12.43;;;11.23;;
17310;SDS011;8773;43.300;0.394;2022-11-20T02:07:45;13.30;;;12.20;;
17310;SDS011;8773;43.300;0.394;2022-11-20T02:10:15;14.67;;;13.37;;
17310;SDS011;8773;43.300;0.394;2022-11-20T02:12:43;15.97;;;14.47;;
17310;SDS011;8773;43.300;0.394;2022-11-20T02:15:29;14.07;;;12.87;;
17310;SDS011;8773;43.300;0.394;2022-11-20T02:17:59;13.13;;;11.97;;
17310;SDS011;8773;43.300;0.394;2022-11-20T02:20:29;13.77;;;12.47;;
17310;SDS011;8773;43.300;0.394;2022-11-20T02:22:58;13.17;;;11.97;;
17310;SDS011;8773;43.300;0.394;2022-11-20T02:25:32;12.80;;;11.70;;
17310;SDS011;8773;43.300;0.394;2022-11-20T02:28:02;12.93;;;11.77;;
17310;SDS011;8773;43.300;0.394;2022-11-20T02:30:32;12.53;;;11.43;;
17310;SDS011;8773;43.300;0.394;2022-11-20T02:33:00;11.00;;;10.07;;
17310;SDS011;8773;43.300;0.394;2022-11-20T02:35:39;10.97;;;9.97;;
17310;SDS011;8773;43.300;0.394;2022-11-20T02:38:09;9.73;;;8.83;;
17310;SDS011;8773;43.300;0.394;2022-11-20T02:40:39;10.03;;;9.07;;
17310;SDS011;8773;43.300;0.394;2022-11-20T02:43:07;9.57;;;8.87;;
17310;SDS011;8773;43.300;0.394;2022-11-20T02:45:35;9.60;;;8.80;;
17310;SDS011;8773;43.300;0.394;2022-11-20T02:48:05;9.23;;;8.40;;
17310;SDS011;8773;43.300;0.394;2022-11-20T02:50:36;9.07;;;8.17;;
17310;SDS011;8773;43.300;0.394;2022-11-20T02:53:05;9.83;;;8.90;;
17310;SDS011;8773;43.300;0.394;2022-11-20T02:55:33;8.37;;;7.67;;
17310;SDS011;8773;43.300;0.394;2022-11-20T02:58:03;9.10;;;8.33;;
17310;SDS011;8773;43.300;0.394;2022-11-20T03:00:32;8.47;;;7.57;;
17310;SDS011;8773;43.300;0.394;2022-11-20T03:03:00;8.10;;;7.40;;
17310;SDS011;8773;43.300;0.394;2022-11-20T03:05:30;8.43;;;7.73;;
17310;SDS011;8773;43.300;0.394;2022-11-20T03:07:58;7.70;;;7.20;;
17310;SDS011;8773;43.300;0.394;2022-11-20T03:10:26;7.90;;;7.30;;
17310;SDS011;8773;43.300;0.394;2022-11-20T03:12:57;6.60;;;6.00;;
17310;SDS011;8773;43.300;0.394;2022-11-20T03:15:26;7.00;;;6.50;;
17310;SDS011;8773;43.300;0.394;2022-11-20T03:17:55;6.27;;;5.87;;
17310;SDS011;8773;43.300;0.394;2022-11-20T03:20:23;8.50;;;7.60;;
17310;SDS011;8773;43.300;0.394;2022-11-20T03:22:53;7.07;;;6.43;;
17310;SDS011;8773;43.300;0.394;2022-11-20T03:25:21;7.33;;;6.60;;
17310;SDS011;8773;43.300;0.394;2022-11-20T03:27:50;6.70;;;6.20;;
17310;SDS011;8773;43.300;0.394;2022-11-20T03:30:18;7.10;;;6.50;;
17310;SDS011;8773;43.300;0.394;2022-11-20T03:32:52;6.50;;;5.90;;
17310;SDS011;8773;43.300;0.394;2022-11-20T03:35:20;6.67;;;6.07;;
17310;SDS011;8773;43.300;0.394;2022-11-20T03:37:49;7.63;;;7.00;;
17310;SDS011;8773;43.300;0.394;2022-11-20T03:40:18;6.33;;;5.83;;
17310;SDS011;8773;43.300;0.394;2022-11-20T03:42:47;6.70;;;6.10;;
17310;SDS011;8773;43.300;0.394;2022-11-20T03:45:18;6.57;;;6.07;;
17310;SDS011;8773;43.300;0.394;2022-11-20T03:47:46;6.77;;;6.27;;
17310;SDS011;8773;43.300;0.394;2022-11-20T03:50:16;5.47;;;5.13;;
17310;SDS011;8773;43.300;0.394;2022-11-20T03:52:44;5.43;;;5.03;;
17310;SDS011;8773;43.300;0.394;2022-11-20T03:55:12;5.53;;;5.13;;
17310;SDS011;8773;43.300;0.394;2022-11-20T03:57:40;5.47;;;5.07;;
17310;SDS011;8773;43.300;0.394;2022-11-20T04:00:09;5.10;;;4.80;;
17310;SDS011;8773;43.300;0.394;2022-11-20T04:02:38;5.30;;;4.90;;
17310;SDS011;8773;43.300;0.394;2022-11-20T04:05:06;5.33;;;5.03;;
17310;SDS011;8773;43.300;0.394;2022-11-20T04:07:36;4.40;;;4.10;;
17310;SDS011;8773;43.300;0.394;2022-11-20T04:10:04;4.50;;;4.20;;
17310;SDS011;8773;43.300;0.394;2022-11-20T04:12:32;4.50;;;4.20;;
17310;SDS011;8773;43.300;0.394;2022-11-20T04:15:01;4.67;;;4.37;;
17310;SDS011;8773;43.300;0.394;2022-11-20T04:17:29;4.10;;;3.90;;
17310;SDS011;8773;43.300;0.394;2022-11-20T04:19:57;4.30;;;4.00;;
17310;SDS011;8773;43.300;0.394;2022-11-20T04:22:25;3.90;;;3.63;;
17310;SDS011;8773;43.300;0.394;2022-11-20T04:24:54;3.80;;;3.60;;
17310;SDS011;8773;43.300;0.394;2022-11-20T04:27:22;3.53;;;3.33;;
17310;SDS011;8773;43.300;0.394;2022-11-20T04:29:50;3.10;;;3.00;;
17310;SDS011;8773;43.300;0.394;2022-11-20T04:32:21;3.60;;;3.40;;
17310;SDS011;8773;43.300;0.394;2022-11-20T04:34:49;3.30;;;3.03;;
17310;SDS011;8773;43.300;0.394;2022-11-20T04:37:18;3.37;;;3.07;;
17310;SDS011;8773;43.300;0.394;2022-11-20T04:39:46;3.60;;;3.27;;
17310;SDS011;8773;43.300;0.394;2022-11-20T04:42:15;3.40;;;3.20;;
17310;SDS011;8773;43.300;0.394;2022-11-20T04:45:04;3.30;;;3.10;;
17310;SDS011;8773;43.300;0.394;2022-11-20T04:47:32;3.27;;;3.07;;
17310;SDS011;8773;43.300;0.394;2022-11-20T04:50:00;3.50;;;3.20;;
17310;SDS011;8773;43.300;0.394;2022-11-20T04:52:28;2.97;;;2.87;;
17310;SDS011;8773;43.300;0.394;2022-11-20T04:54:56;3.50;;;3.30;;
17310;SDS011;8773;43.300;0.394;2022-11-20T04:57:26;3.53;;;3.33;;
17310;SDS011;8773;43.300;0.394;2022-11-20T04:59:54;3.83;;;3.47;;
17310;SDS011;8773;43.300;0.394;2022-11-20T05:02:22;3.47;;;3.27;;
17310;SDS011;8773;43.300;0.394;2022-11-20T05:04:50;3.63;;;3.33;;
17310;SDS011;8773;43.300;0.394;2022-11-20T05:07:18;3.00;;;2.90;;
17310;SDS011;8773;43.300;0.394;2022-11-20T05:09:46;3.53;;;3.23;;
17310;SDS011;8773;43.300;0.394;2022-11-20T05:12:14;3.07;;;2.97;;
17310;SDS011;8773;43.300;0.394;2022-11-20T05:14:43;3.03;;;2.93;;
17310;SDS011;8773;43.300;0.394;2022-11-20T05:17:11;2.80;;;2.70;;
17310;SDS011;8773;43.300;0.394;2022-11-20T05:19:39;3.27;;;3.07;;
17310;SDS011;8773;43.300;0.394;2022-11-20T05:22:07;3.23;;;2.93;;
17310;SDS011;8773;43.300;0.394;2022-11-20T05:24:35;2.90;;;2.70;;
17310;SDS011;8773;43.300;0.394;2022-11-20T05:27:03;3.17;;;2.97;;
17310;SDS011;8773;43.300;0.394;2022-11-20T05:29:31;3.27;;;3.07;;
17310;SDS011;8773;43.300;0.394;2022-11-20T05:32:01;3.63;;;3.30;;
17310;SDS011;8773;43.300;0.394;2022-11-20T05:34:29;3.53;;;3.30;;
17310;SDS011;8773;43.300;0.394;2022-11-20T05:37:00;3.27;;;3.07;;
17310;SDS011;8773;43.300;0.394;2022-11-20T05:39:28;3.00;;;2.90;;
17310;SDS011;8773;43.300;0.394;2022-11-20T05:41:56;3.43;;;3.23;;
17310;SDS011;8773;43.300;0.394;2022-11-20T05:44:38;3.20;;;3.00;;
17310;SDS011;8773;43.300;0.394;2022-11-20T05:47:08;3.40;;;3.10;;
17310;SDS011;8773;43.300;0.394;2022-11-20T05:49:36;3.73;;;3.13;;
17310;SDS011;8773;43.300;0.394;2022-11-20T05:52:04;3.30;;;3.10;;
17310;SDS011;8773;43.300;0.394;2022-11-20T05:54:32;3.20;;;3.00;;
17310;SDS011;8773;43.300;0.394;2022-11-20T05:57:00;3.13;;;2.93;;
17310;SDS011;8773;43.300;0.394;2022-11-20T05:59:28;2.90;;;2.70;;
17310;SDS011;8773;43.300;0.394;2022-11-20T06:01:56;3.10;;;2.90;;
17310;SDS011;8773;43.300;0.394;2022-11-20T06:04:26;2.90;;;2.77;;
17310;SDS011;8773;43.300;0.394;2022-11-20T06:06:54;2.80;;;2.60;;
17310;SDS011;8773;43.300;0.394;2022-11-20T06:09:22;2.83;;;2.63;;
17310;SDS011;8773;43.300;0.394;2022-11-20T06:11:50;2.60;;;2.50;;
17310;SDS011;8773;43.300;0.394;2022-11-20T06:14:18;2.70;;;2.60;;
17310;SDS011;8773;43.300;0.394;2022-11-20T06:16:46;3.10;;;2.90;;
17310;SDS011;8773;43.300;0.394;2022-11-20T06:19:14;3.07;;;2.87;;
17310;SDS011;8773;43.300;0.394;2022-11-20T06:21:44;2.80;;;2.60;;
17310;SDS011;8773;43.300;0.394;2022-11-20T06:24:12;3.20;;;2.90;;
17310;SDS011;8773;43.300;0.394;2022-11-20T06:26:40;3.00;;;2.80;;
17310;SDS011;8773;43.300;0.394;2022-11-20T06:29:08;2.57;;;2.47;;
17310;SDS011;8773;43.300;0.394;2022-11-20T06:31:37;3.03;;;2.70;;
17310;SDS011;8773;43.300;0.394;2022-11-20T06:34:05;2.80;;;2.57;;
17310;SDS011;8773;43.300;0.394;2022-11-20T06:36:34;2.70;;;2.60;;
17310;SDS011;8773;43.300;0.394;2022-11-20T06:39:03;2.47;;;2.33;;
17310;SDS011;8773;43.300;0.394;2022-11-20T06:41:31;2.97;;;2.77;;
17310;SDS011;8773;43.300;0.394;2022-11-20T06:43:59;2.73;;;2.53;;
17310;SDS011;8773;43.300;0.394;2022-11-20T06:46:27;3.90;;;3.00;;
17310;SDS011;8773;43.300;0.394;2022-11-20T06:48:55;2.53;;;2.33;;
17310;SDS011;8773;43.300;0.394;2022-11-20T06:51:24;2.67;;;2.47;;
17310;SDS011;8773;43.300;0.394;2022-11-20T06:53:52;2.80;;;2.57;;
17310;SDS011;8773;43.300;0.394;2022-11-20T06:56:22;3.33;;;2.73;;
17310;SDS011;8773;43.300;0.394;2022-11-20T06:58:50;2.97;;;2.70;;
17310;SDS011;8773;43.300;0.394;2022-11-20T07:01:18;2.90;;;2.70;;
17310;SDS011;8773;43.300;0.394;2022-11-20T07:03:48;3.10;;;2.77;;
17310;SDS011;8773;43.300;0.394;2022-11-20T07:06:20;2.83;;;2.73;;
17310;SDS011;8773;43.300;0.394;2022-11-20T07:08:49;2.97;;;2.73;;
17310;SDS011;8773;43.300;0.394;2022-11-20T07:11:18;3.03;;;2.70;;
17310;SDS011;8773;43.300;0.394;2022-11-20T07:13:47;3.00;;;2.80;;
17310;SDS011;8773;43.300;0.394;2022-11-20T07:16:15;2.40;;;2.30;;
17310;SDS011;8773;43.300;0.394;2022-11-20T07:18:44;3.63;;;2.77;;
17310;SDS011;8773;43.300;0.394;2022-11-20T07:21:16;3.30;;;2.97;;
17310;SDS011;8773;43.300;0.394;2022-11-20T07:23:44;3.10;;;2.90;;
17310;SDS011;8773;43.300;0.394;2022-11-20T07:26:12;3.30;;;3.10;;
17310;SDS011;8773;43.300;0.394;2022-11-20T07:28:43;3.10;;;2.93;;
17310;SDS011;8773;43.300;0.394;2022-11-20T07:31:13;3.30;;;3.10;;
17310;SDS011;8773;43.300;0.394;2022-11-20T07:33:44;2.93;;;2.73;;
17310;SDS011;8773;43.300;0.394;2022-11-20T07:36:12;3.30;;;3.10;;
17310;SDS011;8773;43.300;0.394;2022-11-20T07:38:40;3.47;;;3.27;;
17310;SDS011;8773;43.300;0.394;2022-11-20T07:41:08;3.20;;;3.00;;
17310;SDS011;8773;43.300;0.394;2022-11-20T07:43:37;3.50;;;3.20;;
17310;SDS011;8773;43.300;0.394;2022-11-20T07:46:07;3.10;;;2.90;;
17310;SDS011;8773;43.300;0.394;2022-11-20T07:48:36;3.20;;;3.03;;
17310;SDS011;8773;43.300;0.394;2022-11-20T07:51:04;3.30;;;3.07;;
17310;SDS011;8773;43.300;0.394;2022-11-20T07:53:33;2.60;;;2.40;;
17310;SDS011;8773;43.300;0.394;2022-11-20T07:56:01;3.00;;;2.80;;
17310;SDS011;8773;43.300;0.394;2022-11-20T07:58:30;3.67;;;3.13;;
17310;SDS011;8773;43.300;0.394;2022-11-20T08:01:03;3.13;;;3.00;;
17310;SDS011;8773;43.300;0.394;2022-11-20T08:03:32;3.03;;;2.83;;
17310;SDS011;8773;43.300;0.394;2022-11-20T08:06:02;3.40;;;3.10;;
17310;SDS011;8773;43.300;0.394;2022-11-20T08:08:32;3.33;;;3.13;;
17310;SDS011;8773;43.300;0.394;2022-11-20T08:11:05;3.20;;;3.00;;
17310;SDS011;8773;43.300;0.394;2022-11-20T08:13:51;3.17;;;2.97;;
17310;SDS011;8773;43.300;0.394;2022-11-20T08:16:46;2.90;;;2.70;;
17310;SDS011;8773;43.300;0.394;2022-11-20T08:19:16;2.77;;;2.67;;
17310;SDS011;8773;43.300;0.394;2022-11-20T08:21:47;3.23;;;3.13;;
17310;SDS011;8773;43.300;0.394;2022-11-20T08:24:15;2.83;;;2.70;;
17310;SDS011;8773;43.300;0.394;2022-11-20T08:26:43;3.23;;;3.00;;
17310;SDS011;8773;43.300;0.394;2022-11-20T08:29:13;2.90;;;2.70;;
17310;SDS011;8773;43.300;0.394;2022-11-20T08:31:41;2.83;;;2.63;;
17310;SDS011;8773;43.300;0.394;2022-11-20T08:34:09;2.73;;;2.53;;
17310;SDS011;8773;43.300;0.394;2022-11-20T08:36:44;2.50;;;2.30;;
17310;SDS011;8773;43.300;0.394;2022-11-20T08:39:14;2.77;;;2.57;;
17310;SDS011;8773;43.300;0.394;2022-11-20T08:41:44;2.90;;;2.70;;
17310;SDS011;8773;43.300;0.394;2022-11-20T08:44:12;3.60;;;2.80;;
17310;SDS011;8773;43.300;0.394;2022-11-20T08:46:40;3.93;;;3.60;;
17310;SDS011;8773;43.300;0.394;2022-11-20T08:49:11;3.27;;;3.07;;
17310;SDS011;8773;43.300;0.394;2022-11-20T08:51:40;3.40;;;2.63;;
17310;SDS011;8773;43.300;0.394;2022-11-20T08:54:09;3.43;;;3.23;;
17310;SDS011;8773;43.300;0.394;2022-11-20T08:56:39;3.17;;;2.97;;
17310;SDS011;8773;43.300;0.394;2022-11-20T08:59:07;3.37;;;3.10;;
17310;SDS011;8773;43.300;0.394;2022-11-20T09:02:05;4.13;;;3.83;;
17310;SDS011;8773;43.300;0.394;2022-11-20T09:04:33;3.77;;;3.57;;
17310;SDS011;8773;43.300;0.394;2022-11-20T09:07:01;3.50;;;3.30;;
17310;SDS011;8773;43.300;0.394;2022-11-20T09:09:32;3.40;;;3.10;;
17310;SDS011;8773;43.300;0.394;2022-11-20T09:12:01;3.87;;;3.57;;
17310;SDS011;8773;43.300;0.394;2022-11-20T09:14:29;3.17;;;2.97;;
17310;SDS011;8773;43.300;0.394;2022-11-20T09:16:58;21.87;;;16.30;;
17310;SDS011;8773;43.300;0.394;2022-11-20T09:19:26;14.33;;;12.63;;
17310;SDS011;8773;43.300;0.394;2022-11-20T09:22:06;6.47;;;5.87;;
17310;SDS011;8773;43.300;0.394;2022-11-20T09:24:34;3.40;;;3.20;;
17310;SDS011;8773;43.300;0.394;2022-11-20T09:27:06;3.40;;;3.20;;
17310;SDS011;8773;43.300;0.394;2022-11-20T09:29:35;3.73;;;3.20;;
17310;SDS011;8773;43.300;0.394;2022-11-20T09:32:03;3.53;;;3.33;;
17310;SDS011;8773;43.300;0.394;2022-11-20T09:34:32;7.20;;;6.60;;
17310;SDS011;8773;43.300;0.394;2022-11-20T09:37:00;5.07;;;4.77;;
17310;SDS011;8773;43.300;0.394;2022-11-20T09:39:37;6.63;;;6.17;;
17310;SDS011;8773;43.300;0.394;2022-11-20T09:45:15;5.13;;;4.87;;
17310;SDS011;8773;43.300;0.394;2022-11-20T09:47:53;4.13;;;3.93;;
17310;SDS011;8773;43.300;0.394;2022-11-20T09:50:35;5.07;;;4.67;;
17310;SDS011;8773;43.300;0.394;2022-11-20T09:53:12;4.90;;;4.60;;
17310;SDS011;8773;43.300;0.394;2022-11-20T09:55:46;5.73;;;5.33;;
17310;SDS011;8773;43.300;0.394;2022-11-20T09:58:19;6.00;;;5.50;;
17310;SDS011;8773;43.300;0.394;2022-11-20T10:00:56;5.27;;;4.87;;
17310;SDS011;8773;43.300;0.394;2022-11-20T10:03:32;4.67;;;4.37;;
17310;SDS011;8773;43.300;0.394;2022-11-20T10:06:08;11.23;;;8.23;;
17310;SDS011;8773;43.300;0.394;2022-11-20T10:08:41;5.23;;;4.90;;
17310;SDS011;8773;43.300;0.394;2022-11-20T10:11:13;4.03;;;3.73;;
17310;SDS011;8773;43.300;0.394;2022-11-20T10:13:48;4.53;;;4.10;;
17310;SDS011;8773;43.300;0.394;2022-11-20T10:16:27;4.77;;;4.47;;
17310;SDS011;8773;43.300;0.394;2022-11-20T10:19:10;4.77;;;4.47;;
17310;SDS011;8773;43.300;0.394;2022-11-20T10:21:53;4.37;;;4.07;;
17310;SDS011;8773;43.300;0.394;2022-11-20T10:24:39;4.63;;;4.30;;
17310;SDS011;8773;43.300;0.394;2022-11-20T10:27:29;4.97;;;4.67;;
17310;SDS011;8773;43.300;0.394;2022-11-20T10:30:21;4.40;;;4.10;;
17310;SDS011;8773;43.300;0.394;2022-11-20T10:32:52;4.70;;;4.23;;
17310;SDS011;8773;43.300;0.394;2022-11-20T10:35:24;4.50;;;4.20;;
17310;SDS011;8773;43.300;0.394;2022-11-20T10:37:58;3.40;;;3.13;;
17310;SDS011;8773;43.300;0.394;2022-11-20T10:40:29;3.70;;;3.40;;
17310;SDS011;8773;43.300;0.394;2022-11-20T10:43:02;3.23;;;2.93;;
17310;SDS011;8773;43.300;0.394;2022-11-20T10:46:00;2.50;;;2.23;;
17310;SDS011;8773;43.300;0.394;2022-11-20T10:48:31;1.57;;;1.30;;
17310;SDS011;8773;43.300;0.394;2022-11-20T10:51:05;1.10;;;1.10;;
17310;SDS011;8773;43.300;0.394;2022-11-20T10:53:45;1.20;;;1.20;;
17310;SDS011;8773;43.300;0.394;2022-11-20T10:56:23;1.33;;;1.00;;
17310;SDS011;8773;43.300;0.394;2022-11-20T10:59:04;1.73;;;1.33;;
17310;SDS011;8773;43.300;0.394;2022-11-20T11:01:47;1.50;;;1.40;;
17310;SDS011;8773;43.300;0.394;2022-11-20T11:04:18;1.80;;;1.17;;
17310;SDS011;8773;43.300;0.394;2022-11-20T11:07:00;1.10;;;1.00;;
17310;SDS011;8773;43.300;0.394;2022-11-20T11:09:38;1.87;;;1.33;;
17310;SDS011;8773;43.300;0.394;2022-11-20T11:12:09;1.83;;;1.40;;
17310;SDS011;8773;43.300;0.394;2022-11-20T11:14:42;2.17;;;1.40;;
17310;SDS011;8773;43.300;0.394;2022-11-20T11:17:23;2.80;;;1.50;;
17310;SDS011;8773;43.300;0.394;2022-11-20T11:20:06;2.20;;;1.40;;
17310;SDS011;8773;43.300;0.394;2022-11-20T11:22:43;3.57;;;1.47;;
17310;SDS011;8773;43.300;0.394;2022-11-20T11:25:35;2.10;;;1.90;;
17310;SDS011;8773;43.300;0.394;2022-11-20T11:28:04;3.17;;;1.90;;
17310;SDS011;8773;43.300;0.394;2022-11-20T11:30:47;4.40;;;1.70;;
17310;SDS011;8773;43.300;0.394;2022-11-20T11:33:19;5.80;;;2.00;;
17310;SDS011;8773;43.300;0.394;2022-11-20T11:35:49;5.03;;;2.00;;
17310;SDS011;8773;43.300;0.394;2022-11-20T11:38:21;3.23;;;1.60;;
17310;SDS011;8773;43.300;0.394;2022-11-20T11:40:56;4.93;;;2.10;;
17310;SDS011;8773;43.300;0.394;2022-11-20T11:43:26;5.00;;;2.20;;
17310;SDS011;8773;43.300;0.394;2022-11-20T11:46:22;3.50;;;1.90;;
17310;SDS011;8773;43.300;0.394;2022-11-20T11:48:57;3.30;;;1.83;;
17310;SDS011;8773;43.300;0.394;2022-11-20T11:51:28;5.90;;;2.47;;
17310;SDS011;8773;43.300;0.394;2022-11-20T11:54:04;3.83;;;2.57;;
17310;SDS011;8773;43.300;0.394;2022-11-20T11:56:53;6.20;;;2.30;;
17310;SDS011;8773;43.300;0.394;2022-11-20T11:59:23;3.83;;;2.00;;
17310;SDS011;8773;43.300;0.394;2022-11-20T12:01:55;8.37;;;2.77;;
17310;SDS011;8773;43.300;0.394;2022-11-20T12:04:37;7.30;;;2.87;;
17310;SDS011;8773;43.300;0.394;2022-11-20T12:07:12;8.27;;;2.77;;
17310;SDS011;8773;43.300;0.394;2022-11-20T12:10:12;7.87;;;2.60;;
17310;SDS011;8773;43.300;0.394;2022-11-20T12:12:48;6.50;;;2.20;;
17310;SDS011;8773;43.300;0.394;2022-11-20T12:15:23;6.83;;;2.70;;
17310;SDS011;8773;43.300;0.394;2022-11-20T12:17:56;7.70;;;2.30;;
17310;SDS011;8773;43.300;0.394;2022-11-20T12:20:27;7.63;;;2.77;;
17310;SDS011;8773;43.300;0.394;2022-11-20T12:23:03;6.80;;;3.37;;
17310;SDS011;8773;43.300;0.394;2022-11-20T12:25:37;10.90;;;2.77;;
17310;SDS011;8773;43.300;0.394;2022-11-20T12:28:12;8.77;;;3.03;;
17310;SDS011;8773;43.300;0.394;2022-11-20T12:31:05;7.23;;;3.57;;
17310;SDS011;8773;43.300;0.394;2022-11-20T12:33:50;13.40;;;3.97;;
17310;SDS011;8773;43.300;0.394;2022-11-20T12:36:33;11.07;;;3.00;;
17310;SDS011;8773;43.300;0.394;2022-11-20T12:39:16;8.60;;;3.07;;
17310;SDS011;8773;43.300;0.394;2022-11-20T12:42:02;8.43;;;3.40;;
17310;SDS011;8773;43.300;0.394;2022-11-20T12:45:01;9.93;;;3.27;;
17310;SDS011;8773;43.300;0.394;2022-11-20T12:47:42;9.33;;;3.60;;
17310;SDS011;8773;43.300;0.394;2022-11-20T12:50:32;10.83;;;3.77;;
17310;SDS011;8773;43.300;0.394;2022-11-20T12:53:30;8.17;;;3.50;;
17310;SDS011;8773;43.300;0.394;2022-11-20T12:56:17;9.63;;;3.67;;
17310;SDS011;8773;43.300;0.394;2022-11-20T12:59:00;8.73;;;3.23;;
17310;SDS011;8773;43.300;0.394;2022-11-20T13:01:38;10.23;;;3.50;;
17310;SDS011;8773;43.300;0.394;2022-11-20T13:04:16;11.13;;;3.73;;
17310;SDS011;8773;43.300;0.394;2022-11-20T13:07:03;12.50;;;3.00;;
17310;SDS011;8773;43.300;0.394;2022-11-20T13:09:38;8.97;;;3.17;;
17310;SDS011;8773;43.300;0.394;2022-11-20T13:12:12;7.57;;;3.33;;
17310;SDS011;8773;43.300;0.394;2022-11-20T13:14:45;9.20;;;3.60;;
17310;SDS011;8773;43.300;0.394;2022-11-20T13:17:20;9.13;;;3.30;;
17310;SDS011;8773;43.300;0.394;2022-11-20T13:19:52;12.70;;;3.93;;
17310;SDS011;8773;43.300;0.394;2022-11-20T13:22:24;11.70;;;4.03;;
17310;SDS011;8773;43.300;0.394;2022-11-20T13:24:54;11.30;;;4.03;;
17310;SDS011;8773;43.300;0.394;2022-11-20T13:27:23;13.60;;;3.97;;
17310;SDS011;8773;43.300;0.394;2022-11-20T13:30:01;6.57;;;3.23;;
17310;SDS011;8773;43.300;0.394;2022-11-20T13:32:47;7.40;;;2.67;;
17310;SDS011;8773;43.300;0.394;2022-11-20T13:35:37;7.97;;;2.77;;
17310;SDS011;8773;43.300;0.394;2022-11-20T13:38:09;7.43;;;3.30;;
17310;SDS011;8773;43.300;0.394;2022-11-20T13:40:49;6.33;;;2.50;;
17310;SDS011;8773;43.300;0.394;2022-11-20T13:43:21;4.27;;;2.30;;
17310;SDS011;8773;43.300;0.394;2022-11-20T13:45:55;5.67;;;2.50;;
17310;SDS011;8773;43.300;0.394;2022-11-20T13:48:25;6.67;;;2.60;;
17310;SDS011;8773;43.300;0.394;2022-11-20T13:51:02;7.93;;;2.60;;
17310;SDS011;8773;43.300;0.394;2022-11-20T13:53:43;5.33;;;2.33;;
17310;SDS011;8773;43.300;0.394;2022-11-20T13:56:27;6.53;;;2.37;;
17310;SDS011;8773;43.300;0.394;2022-11-20T13:59:08;4.67;;;2.30;;
17310;SDS011;8773;43.300;0.394;2022-11-20T14:01:48;6.67;;;2.30;;
17310;SDS011;8773;43.300;0.394;2022-11-20T14:04:17;5.90;;;2.10;;
17310;SDS011;8773;43.300;0.394;2022-11-20T14:06:49;5.20;;;2.50;;
17310;SDS011;8773;43.300;0.394;2022-11-20T14:09:24;6.77;;;2.67;;
17310;SDS011;8773;43.300;0.394;2022-11-20T14:11:55;8.13;;;2.87;;
17310;SDS011;8773;43.300;0.394;2022-11-20T14:14:23;8.20;;;3.00;;
17310;SDS011;8773;43.300;0.394;2022-11-20T14:16:52;5.60;;;3.10;;
17310;SDS011;8773;43.300;0.394;2022-11-20T14:19:31;9.23;;;3.90;;
17310;SDS011;8773;43.300;0.394;2022-11-20T14:22:07;9.73;;;4.03;;
17310;SDS011;8773;43.300;0.394;2022-11-20T14:24:38;4.90;;;3.20;;
17310;SDS011;8773;43.300;0.394;2022-11-20T14:27:11;8.50;;;3.30;;
17310;SDS011;8773;43.300;0.394;2022-11-20T14:29:41;10.60;;;3.83;;
17310;SDS011;8773;43.300;0.394;2022-11-20T14:32:13;9.97;;;4.63;;
17310;SDS011;8773;43.300;0.394;2022-11-20T14:34:44;7.70;;;3.53;;
17310;SDS011;8773;43.300;0.394;2022-11-20T14:37:17;8.60;;;3.20;;
17310;SDS011;8773;43.300;0.394;2022-11-20T14:39:49;7.00;;;2.97;;
17310;SDS011;8773;43.300;0.394;2022-11-20T14:42:21;7.70;;;3.00;;
17310;SDS011;8773;43.300;0.394;2022-11-20T14:44:51;7.53;;;3.20;;
17310;SDS011;8773;43.300;0.394;2022-11-20T14:47:23;9.43;;;3.00;;
17310;SDS011;8773;43.300;0.394;2022-11-20T14:49:53;10.33;;;3.57;;
17310;SDS011;8773;43.300;0.394;2022-11-20T14:52:23;7.20;;;2.97;;
17310;SDS011;8773;43.300;0.394;2022-11-20T14:54:53;4.60;;;2.87;;
17310;SDS011;8773;43.300;0.394;2022-11-20T14:57:27;7.33;;;2.30;;
17310;SDS011;8773;43.300;0.394;2022-11-20T15:00:07;10.00;;;2.60;;
17310;SDS011;8773;43.300;0.394;2022-11-20T15:02:48;3.37;;;2.10;;
17310;SDS011;8773;43.300;0.394;2022-11-20T15:05:44;5.77;;;2.30;;
17310;SDS011;8773;43.300;0.394;2022-11-20T15:08:14;4.50;;;2.20;;
17310;SDS011;8773;43.300;0.394;2022-11-20T15:10:46;11.33;;;6.47;;
17310;SDS011;8773;43.300;0.394;2022-11-20T15:13:17;6.50;;;4.27;;
17310;SDS011;8773;43.300;0.394;2022-11-20T15:15:52;6.20;;;3.03;;
17310;SDS011;8773;43.300;0.394;2022-11-20T15:18:22;8.23;;;2.43;;
17310;SDS011;8773;43.300;0.394;2022-11-20T15:20:54;7.43;;;2.60;;
17310;SDS011;8773;43.300;0.394;2022-11-20T15:23:23;6.80;;;2.83;;
17310;SDS011;8773;43.300;0.394;2022-11-20T15:25:53;5.83;;;2.97;;
17310;SDS011;8773;43.300;0.394;2022-11-20T15:28:25;9.20;;;3.37;;
17310;SDS011;8773;43.300;0.394;2022-11-20T15:30:56;5.77;;;3.07;;